Hauptseite
METAR-TAF:

METAR-TAF

Flughäfen :

Münster-Osnabrück, Deutschland

Flughafen Münster/Osnabrück

Breite: 52-08N, Länge: 007-42E, Höhe: 48 m

Beobachtung

Neuester Wetterbericht von vor 20 Minuten, um 01:20 UTC
Wind 6 kt aus Ost/Nordost, variierte zwischen Nord und Südost
Temperatur -4°C
Luftfeuchtigkeit 63%
Luftdruck 1030 hPa
Sichtweite 10 km oder mehr
keine Wolken unter 1500 m und keine Kumulonimbus oder Gewitterwolken

METAR: EDDG 250120Z 06006KT 010V130 CAVOK M04/M10 Q1030 NOSIG

Zeit: 02:40 (01:40 UTC)

Prognose

Neuester Wetterbericht von vor 2 Stunden und 40 Minuten, um 23:00 UTC
Gültige Prognose vom 25 um 00 UTC bis 25 um 24 UTC
Wind 8 kt aus Ost/Nordost
Sichtweite 10 km oder mehr
keine Wolken unter 1500 m und keine Kumulonimbus oder Gewitterwolken
Zeitweise
vom 25 um 10 UTC bis 25 um 14 UTC
Wind 13 kt aus Ost/Nordost

TAF: EDDG 242300Z 2500/2524 06008KT CAVOK TEMPO 2510/2514 06013KT

Wetterbeobachtungen und Prognosen von mehr als 4000 Flughäfen (METAR und TAF Bericht).

Die verfügbaren Stationen werden durch gelbe und rote Markierungen auf der Karte dargestellt.

Führen Sie die Maus auf sie, um den Namen der Station zu sehen.

Darauf klicken, um die Beobachtung von Wetterbeobachtungen und Prognosen zu sehen.

Um die Karte zu ändern : klicken Sie auf den grünen Tasten mit einem schwarzen Kreuz Zum Vergrößern, auf den grünen Button mit einem Gedankenstrich zu verkleinern, oder auf die grünen Pfeile für benachbarte Karten.


METAR-TAF: